Private Wetterstation Nrnberg - Katzwang
Wetterdaten: Dezember 2016
Datum Temp. A. Feuchte A. Luftdruck Regen Wind Richtung Taupunkt Windchill Windben
01.12.2016 2,1 C 73 % 1022 hPa 0,0 l/m 9,3 km/h W-NW -2,1 C -1,6 C 8,6 km/h
02.12.2016 3,5 C 80 % 1017 hPa 0,0 l/m 10,0 km/h W-NW 0,4 C -0,3 C 10,0 km/h
03.12.2016 -1,8 C 82 % 1021 hPa 0,0 l/m 0,9 km/h SO -4,4 C -2,0 C 0,7 km/h
04.12.2016 -4,5 C 80 % 1024 hPa 0,5 l/m 0,3 km/h N -7,4 C -4,6 C 0,3 km/h
05.12.2016 -3,8 C 82 % 1025 hPa 0,0 l/m 4,9 km/h S-SO -6,5 C -5,9 C 4,3 km/h
06.12.2016 -1,4 C 83 % 1028 hPa 0,0 l/m 1,7 km/h S-SO -3,9 C -1,8 C 1,4 km/h
07.12.2016 -1,4 C 83 % 1031 hPa 0,0 l/m 5,1 km/h S -3,9 C -3,4 C 4,2 km/h
08.12.2016 -0,3 C 81 % 1030 hPa 0,0 l/m 3,0 km/h S -3,2 C -1,5 C 2,5 km/h
09.12.2016 2,3 C 81 % 1028 hPa 0,0 l/m 0,8 km/h S-SW -0,7 C 2,1 C 0,7 km/h
10.12.2016 4,1 C 77 % 1023 hPa 0,0 l/m 1,2 km/h SW 0,4 C 3,9 C 1,0 km/h
11.12.2016 4,1 C 81 % 1017 hPa 2,6 l/m 10,6 km/h W-NW 1,1 C 0,4 C 9,6 km/h
12.12.2016 4,8 C 79 % 1022 hPa 0,0 l/m 8,9 km/h W-NW 1,5 C 1,6 C 7,7 km/h
13.12.2016 2,4 C 82 % 1023 hPa 2,1 l/m 1,7 km/h S -0,3 C 1,9 C 1,4 km/h
14.12.2016 4,6 C 83 % 1022 hPa 1,0 l/m 0,1 km/h O 2,0 C 4,6 C 0,1 km/h
15.12.2016 3,5 C 83 % 1025 hPa 0,0 l/m 3,1 km/h S-SO 0,8 C 2,5 C 2,7 km/h
16.12.2016 0,0 C 79 % 1028 hPa 0,5 l/m 8,0 km/h S-SO -3,2 C -3,2 C 6,9 km/h
17.12.2016 -0,2 C 82 % 1034 hPa 0,0 l/m 1,6 km/h S -2,9 C -0,6 C 1,4 km/h
18.12.2016 1,1 C 82 % 1031 hPa 0,5 l/m 0,9 km/h N-NW -1,6 C 0,8 C 0,8 km/h
19.12.2016 0,7 C 82 % 1025 hPa 0,0 l/m 2,7 km/h O -2,0 C -0,3 C 2,2 km/h
20.12.2016 -3,0 C 82 % 1022 hPa 0,0 l/m 2,5 km/h S-SO -5,7 C -4,1 C 2,2 km/h
21.12.2016 -1,2 C 82 % 1026 hPa 0,0 l/m 4,4 km/h S-SO -3,9 C -2,6 C 3,6 km/h
22.12.2016 -0,7 C 82 % 1029 hPa 0,0 l/m 8,4 km/h S-SO -3,5 C -4,3 C 7,1 km/h
23.12.2016 1,7 C 83 % 1031 hPa 1,0 l/m 3,1 km/h S-SO -0,9 C 0,6 C 2,5 km/h
24.12.2016 4,4 C 83 % 1025 hPa 1,0 l/m 7,1 km/h W-NW 1,8 C 2,1 C 6,1 km/h
25.12.2016 6,7 C 80 % 1024 hPa 0,5 l/m 14,4 km/h W-NW 3,5 C 1,7 C 13,4 km/h
26.12.2016 7,0 C 80 % 1026 hPa 0,0 l/m 13,1 km/h W-NW 3,7 C 2,6 C 12,4 km/h
27.12.2016 3,4 C 77 % 1034 hPa 0,0 l/m 13,4 km/h W-NW -0,2 C -1,7 C 12,2 km/h
28.12.2016 4,0 C 79 % 1038 hPa 0,0 l/m 9,2 km/h N-NW 0,6 C 0,5 C 8,1 km/h
29.12.2016 0,8 C 80 % 1037 hPa 0,0 l/m 1,3 km/h S -2,4 C 0,3 C 1,2 km/h
30.12.2016 -3,3 C 79 % 1035 hPa 0,0 l/m 0,8 km/h S -6,4 C -3,6 C 0,7 km/h
31.12.2016 -4,3 C 80 % 1030 hPa 0,0 l/m 3,6 km/h S-SO -7,2 C -5,7 C 2,9 km/h
Min-Datum 04.12.16 10.12.16 11.12.16 9 Tage 01.12.16 - 04.12.16 05.12.16 01.12.16
Min-Zeit 08:00 14:20 07:50 - 00:00 - 08:00 08:10 00:00
Minimum -9,2 C 58 % 1015 hPa - 0,0 km/h - -11,7 C -19,4 C 0,0 km/h
Max-Datum 10.12.16 24.12.16 28.12.16 11.12.16 26.12.16 - 10.12.16 10.12.16 25.12.16
Max-Zeit 13:20 07:10 10:20 09:30 15:20 - 13:10 13:10 01:50
Maximum 12,7 C 85 % 1040 hPa 2,6 l/m 59,2 km/h
W-NW
- 6,1 C 12,5 C 76,2 km/h
W-NW
Durchschnitt 1,1 C 81 % 1027 hPa #9,8 l/m 5,0 km/h W-NW -1,8 C -0,7 C 4,5 km/h

Durchschnitt Minimum Temp.-2,0 C
Durchschnitt Maximum Temp.4,5 C